Chesterfield Inlet Airport
CYCS : now visible

Airfield :











YOU CAN JOIN US ON...

 
LOGIN :

Register | Disclaimer

   EN    FR    IT 

 









Legend :    VFR   Marginal VFR   IFR   Intensive IFR   Very Intensive IFR
Visi :
Ceiling :
>= 8 km
>= 3000ft
5 to 8 km
1000 to 3000 ft
1500m to 5 km
500 to 1000 ft
800 to 1500m
200 to 500 ft
< 800m
< 200 ft
Symbols :   Thunderstorms  Fog  Heavy snow  Heavy precipitations  Wind > 20 kt







- Airport Elevation : 32 ft
- IATA code : YCS


CYCS - Chesterfield Inlet

CURRENT METAR :
  • 211651Z 07019KT 1/2SM DZRA FG OVC002 06/05 A2957 RMK FG6ST2 SLP014

EXPIRED METARs :
  • 211600Z 07017G22KT 3/8SM -DZ FG VV003 05/05 A2958 RMK FG8 SLP019
  • 211540Z 08018G25KT 1/2SM -DZ FG VV003 05/05 A2959 RMK FG8 SLP021
  • 211524Z 07019KT 3/4SM -DZ BR OVC002 05/05 A2959 RMK FG3ST5 SLP023
  • 211500Z 08020KT 2SM -DZ BR OVC002 05/05 A2959 RMK FG2ST6 SLP023
  • 211447Z 08021KT 2SM -DZ BR OVC002 05/05 A2959 RMK FG2ST6 SLP023
  • 211400Z CCA 07015G22KT 3SM -RA OVC003 05/05 A2960 RMK ST8 R02 AFT 22 UTC/0/MIL SLP027

TAF N/A
No reported NOTAMs for that airfield.



MET'MAP, your aeronautical weather chart ! - Copyright ORBIFLY December 2007 - Disclaimer

ORBIFLY MET'MAP TEAM :

Programming & Development : Alexandra Zaïnal
Concept & Development : Baudouin d'Aumeries
Co-Development & Prog : Marc-Olivier Méhu
Technical & hardware support : Manuel Goepfert

Contact : metmap@orbifly.com




SOURCES & CREDITS :

   NOAA       Earth
Advisory